sensor_id;sensor_type;location;lat;lon;timestamp;P1;durP1;ratioP1;P2;durP2;ratioP2
5688;SDS011;2869;50.432;8.680;2023-06-22T00:01:59;13.73;;;10.03;;
5688;SDS011;2869;50.432;8.680;2023-06-22T00:04:27;12.13;;;10.37;;
5688;SDS011;2869;50.432;8.680;2023-06-22T00:06:53;14.90;;;10.60;;
5688;SDS011;2869;50.432;8.680;2023-06-22T00:09:20;11.17;;;10.00;;
5688;SDS011;2869;50.432;8.680;2023-06-22T00:11:47;11.33;;;10.13;;
5688;SDS011;2869;50.432;8.680;2023-06-22T00:14:13;17.90;;;10.50;;
5688;SDS011;2869;50.432;8.680;2023-06-22T00:16:41;14.23;;;10.23;;
5688;SDS011;2869;50.432;8.680;2023-06-22T00:19:08;11.27;;;9.97;;
5688;SDS011;2869;50.432;8.680;2023-06-22T00:21:36;13.90;;;10.33;;
5688;SDS011;2869;50.432;8.680;2023-06-22T00:24:04;12.57;;;10.83;;
5688;SDS011;2869;50.432;8.680;2023-06-22T00:26:31;15.87;;;11.23;;
5688;SDS011;2869;50.432;8.680;2023-06-22T00:28:58;15.60;;;11.50;;
5688;SDS011;2869;50.432;8.680;2023-06-22T00:31:25;12.70;;;11.20;;
5688;SDS011;2869;50.432;8.680;2023-06-22T00:33:53;15.20;;;12.10;;
5688;SDS011;2869;50.432;8.680;2023-06-22T00:36:19;13.57;;;12.17;;
5688;SDS011;2869;50.432;8.680;2023-06-22T00:38:46;14.20;;;11.80;;
5688;SDS011;2869;50.432;8.680;2023-06-22T00:41:15;14.23;;;11.23;;
5688;SDS011;2869;50.432;8.680;2023-06-22T00:43:42;16.83;;;11.93;;
5688;SDS011;2869;50.432;8.680;2023-06-22T00:46:09;12.70;;;11.40;;
5688;SDS011;2869;50.432;8.680;2023-06-22T00:48:35;12.33;;;11.03;;
5688;SDS011;2869;50.432;8.680;2023-06-22T00:51:04;13.77;;;10.97;;
5688;SDS011;2869;50.432;8.680;2023-06-22T00:53:31;15.10;;;11.50;;
5688;SDS011;2869;50.432;8.680;2023-06-22T00:55:59;14.77;;;10.80;;
5688;SDS011;2869;50.432;8.680;2023-06-22T00:58:28;13.27;;;10.57;;
5688;SDS011;2869;50.432;8.680;2023-06-22T01:00:55;14.30;;;11.60;;
5688;SDS011;2869;50.432;8.680;2023-06-22T01:03:22;12.83;;;11.10;;
5688;SDS011;2869;50.432;8.680;2023-06-22T01:05:49;15.73;;;11.40;;
5688;SDS011;2869;50.432;8.680;2023-06-22T01:08:20;13.60;;;11.47;;
5688;SDS011;2869;50.432;8.680;2023-06-22T01:10:53;13.07;;;11.70;;
5688;SDS011;2869;50.432;8.680;2023-06-22T01:13:28;17.17;;;11.10;;
5688;SDS011;2869;50.432;8.680;2023-06-22T01:16:00;38.87;;;12.60;;
5688;SDS011;2869;50.432;8.680;2023-06-22T01:18:30;19.97;;;12.20;;
5688;SDS011;2869;50.432;8.680;2023-06-22T01:21:01;13.40;;;11.77;;
5688;SDS011;2869;50.432;8.680;2023-06-22T01:23:36;12.97;;;11.60;;
5688;SDS011;2869;50.432;8.680;2023-06-22T01:26:17;16.60;;;12.40;;
5688;SDS011;2869;50.432;8.680;2023-06-22T01:28:48;14.60;;;13.10;;
5688;SDS011;2869;50.432;8.680;2023-06-22T01:31:16;17.97;;;13.50;;
5688;SDS011;2869;50.432;8.680;2023-06-22T01:33:47;13.60;;;12.20;;
5688;SDS011;2869;50.432;8.680;2023-06-22T01:36:16;16.77;;;12.90;;
5688;SDS011;2869;50.432;8.680;2023-06-22T01:38:44;16.30;;;13.10;;
5688;SDS011;2869;50.432;8.680;2023-06-22T01:41:11;16.80;;;13.17;;
5688;SDS011;2869;50.432;8.680;2023-06-22T01:43:39;22.60;;;13.00;;
5688;SDS011;2869;50.432;8.680;2023-06-22T01:46:08;14.63;;;12.40;;
5688;SDS011;2869;50.432;8.680;2023-06-22T01:48:34;14.93;;;13.40;;
5688;SDS011;2869;50.432;8.680;2023-06-22T01:51:01;17.33;;;13.60;;
5688;SDS011;2869;50.432;8.680;2023-06-22T01:53:29;17.40;;;13.07;;
5688;SDS011;2869;50.432;8.680;2023-06-22T01:55:55;18.00;;;13.63;;
5688;SDS011;2869;50.432;8.680;2023-06-22T01:58:23;16.43;;;13.27;;
5688;SDS011;2869;50.432;8.680;2023-06-22T02:00:53;19.03;;;15.20;;
5688;SDS011;2869;50.432;8.680;2023-06-22T02:03:27;15.77;;;13.53;;
5688;SDS011;2869;50.432;8.680;2023-06-22T02:05:58;21.20;;;15.40;;
5688;SDS011;2869;50.432;8.680;2023-06-22T02:08:30;25.70;;;16.17;;
5688;SDS011;2869;50.432;8.680;2023-06-22T02:11:07;22.47;;;17.00;;
5688;SDS011;2869;50.432;8.680;2023-06-22T02:13:35;20.50;;;16.73;;
5688;SDS011;2869;50.432;8.680;2023-06-22T02:16:03;19.03;;;16.43;;
5688;SDS011;2869;50.432;8.680;2023-06-22T02:18:31;18.13;;;16.27;;
5688;SDS011;2869;50.432;8.680;2023-06-22T02:21:00;18.47;;;15.90;;
5688;SDS011;2869;50.432;8.680;2023-06-22T02:23:27;16.70;;;14.90;;
5688;SDS011;2869;50.432;8.680;2023-06-22T02:25:54;17.33;;;15.50;;
5688;SDS011;2869;50.432;8.680;2023-06-22T02:28:20;15.90;;;14.27;;
5688;SDS011;2869;50.432;8.680;2023-06-22T02:30:47;18.23;;;16.23;;
5688;SDS011;2869;50.432;8.680;2023-06-22T02:33:13;18.47;;;16.37;;
5688;SDS011;2869;50.432;8.680;2023-06-22T02:35:41;26.60;;;17.07;;
5688;SDS011;2869;50.432;8.680;2023-06-22T02:38:10;19.20;;;16.20;;
5688;SDS011;2869;50.432;8.680;2023-06-22T02:40:37;20.37;;;17.40;;
5688;SDS011;2869;50.432;8.680;2023-06-22T02:43:04;20.90;;;16.63;;
5688;SDS011;2869;50.432;8.680;2023-06-22T02:45:30;20.30;;;15.93;;
5688;SDS011;2869;50.432;8.680;2023-06-22T02:47:57;18.47;;;15.40;;
5688;SDS011;2869;50.432;8.680;2023-06-22T02:50:24;18.27;;;16.20;;
5688;SDS011;2869;50.432;8.680;2023-06-22T02:52:52;27.30;;;16.60;;
5688;SDS011;2869;50.432;8.680;2023-06-22T02:55:19;21.57;;;15.60;;
5688;SDS011;2869;50.432;8.680;2023-06-22T02:57:45;18.30;;;16.40;;
5688;SDS011;2869;50.432;8.680;2023-06-22T03:00:13;18.63;;;16.63;;
5688;SDS011;2869;50.432;8.680;2023-06-22T03:02:43;19.40;;;16.93;;
5688;SDS011;2869;50.432;8.680;2023-06-22T03:05:10;21.17;;;17.47;;
5688;SDS011;2869;50.432;8.680;2023-06-22T03:07:38;22.87;;;17.23;;
5688;SDS011;2869;50.432;8.680;2023-06-22T03:10:08;21.07;;;17.20;;
5688;SDS011;2869;50.432;8.680;2023-06-22T03:12:35;19.40;;;16.43;;
5688;SDS011;2869;50.432;8.680;2023-06-22T03:15:02;20.97;;;17.07;;
5688;SDS011;2869;50.432;8.680;2023-06-22T03:17:30;23.43;;;16.93;;
5688;SDS011;2869;50.432;8.680;2023-06-22T03:19:56;19.67;;;17.57;;
5688;SDS011;2869;50.432;8.680;2023-06-22T03:22:23;22.20;;;18.23;;
5688;SDS011;2869;50.432;8.680;2023-06-22T03:24:50;28.33;;;18.00;;
5688;SDS011;2869;50.432;8.680;2023-06-22T03:27:18;18.73;;;16.80;;
5688;SDS011;2869;50.432;8.680;2023-06-22T03:29:44;21.40;;;18.17;;
5688;SDS011;2869;50.432;8.680;2023-06-22T03:32:11;19.30;;;16.97;;
5688;SDS011;2869;50.432;8.680;2023-06-22T03:34:37;20.03;;;16.53;;
5688;SDS011;2869;50.432;8.680;2023-06-22T03:37:04;20.80;;;18.00;;
5688;SDS011;2869;50.432;8.680;2023-06-22T03:39:31;21.30;;;17.20;;
5688;SDS011;2869;50.432;8.680;2023-06-22T03:41:58;20.73;;;16.40;;
5688;SDS011;2869;50.432;8.680;2023-06-22T03:44:26;19.50;;;16.10;;
5688;SDS011;2869;50.432;8.680;2023-06-22T03:46:53;23.10;;;17.50;;
5688;SDS011;2869;50.432;8.680;2023-06-22T03:49:19;20.40;;;16.80;;
5688;SDS011;2869;50.432;8.680;2023-06-22T03:51:46;22.77;;;17.17;;
5688;SDS011;2869;50.432;8.680;2023-06-22T03:54:13;22.50;;;17.80;;
5688;SDS011;2869;50.432;8.680;2023-06-22T03:56:39;19.93;;;17.47;;
5688;SDS011;2869;50.432;8.680;2023-06-22T03:59:06;20.73;;;17.30;;
5688;SDS011;2869;50.432;8.680;2023-06-22T04:01:34;25.37;;;18.27;;
5688;SDS011;2869;50.432;8.680;2023-06-22T04:04:01;22.67;;;17.00;;
5688;SDS011;2869;50.432;8.680;2023-06-22T04:06:28;22.13;;;17.70;;
5688;SDS011;2869;50.432;8.680;2023-06-22T04:08:55;27.00;;;18.30;;
5688;SDS011;2869;50.432;8.680;2023-06-22T04:11:21;22.70;;;17.60;;
5688;SDS011;2869;50.432;8.680;2023-06-22T04:13:48;20.57;;;16.80;;
5688;SDS011;2869;50.432;8.680;2023-06-22T04:16:17;22.70;;;17.63;;
5688;SDS011;2869;50.432;8.680;2023-06-22T04:18:45;32.73;;;18.50;;
5688;SDS011;2869;50.432;8.680;2023-06-22T04:21:12;25.63;;;19.37;;
5688;SDS011;2869;50.432;8.680;2023-06-22T04:23:39;28.57;;;18.40;;
5688;SDS011;2869;50.432;8.680;2023-06-22T04:26:06;25.67;;;19.33;;
5688;SDS011;2869;50.432;8.680;2023-06-22T04:28:32;23.50;;;20.60;;
5688;SDS011;2869;50.432;8.680;2023-06-22T04:31:00;24.43;;;19.53;;
5688;SDS011;2869;50.432;8.680;2023-06-22T04:33:27;23.77;;;18.63;;
5688;SDS011;2869;50.432;8.680;2023-06-22T04:35:55;22.00;;;18.23;;
5688;SDS011;2869;50.432;8.680;2023-06-22T04:38:23;28.90;;;19.50;;
5688;SDS011;2869;50.432;8.680;2023-06-22T04:40:50;25.80;;;18.83;;
5688;SDS011;2869;50.432;8.680;2023-06-22T04:43:18;24.50;;;19.43;;
5688;SDS011;2869;50.432;8.680;2023-06-22T04:45:44;23.43;;;19.37;;
5688;SDS011;2869;50.432;8.680;2023-06-22T04:48:11;25.30;;;18.70;;
5688;SDS011;2869;50.432;8.680;2023-06-22T04:50:40;26.10;;;20.00;;
5688;SDS011;2869;50.432;8.680;2023-06-22T04:53:08;25.27;;;20.60;;
5688;SDS011;2869;50.432;8.680;2023-06-22T04:55:37;26.97;;;18.47;;
5688;SDS011;2869;50.432;8.680;2023-06-22T04:58:06;30.53;;;21.07;;
5688;SDS011;2869;50.432;8.680;2023-06-22T05:00:33;30.63;;;21.23;;
5688;SDS011;2869;50.432;8.680;2023-06-22T05:03:01;30.30;;;20.97;;
5688;SDS011;2869;50.432;8.680;2023-06-22T05:05:28;27.67;;;21.67;;
5688;SDS011;2869;50.432;8.680;2023-06-22T05:07:56;27.13;;;22.40;;
5688;SDS011;2869;50.432;8.680;2023-06-22T05:10:26;26.93;;;21.40;;
5688;SDS011;2869;50.432;8.680;2023-06-22T05:12:53;28.07;;;21.67;;
5688;SDS011;2869;50.432;8.680;2023-06-22T05:15:19;33.90;;;21.90;;
5688;SDS011;2869;50.432;8.680;2023-06-22T05:17:48;33.13;;;21.20;;
5688;SDS011;2869;50.432;8.680;2023-06-22T05:20:14;35.23;;;21.63;;
5688;SDS011;2869;50.432;8.680;2023-06-22T05:22:42;34.90;;;22.10;;
5688;SDS011;2869;50.432;8.680;2023-06-22T05:25:10;29.33;;;20.07;;
5688;SDS011;2869;50.432;8.680;2023-06-22T05:27:38;25.53;;;19.10;;
5688;SDS011;2869;50.432;8.680;2023-06-22T05:30:05;27.23;;;20.90;;
5688;SDS011;2869;50.432;8.680;2023-06-22T05:32:33;28.83;;;20.10;;
5688;SDS011;2869;50.432;8.680;2023-06-22T05:34:59;26.10;;;21.70;;
5688;SDS011;2869;50.432;8.680;2023-06-22T05:37:26;26.70;;;21.50;;
5688;SDS011;2869;50.432;8.680;2023-06-22T05:39:52;34.73;;;21.97;;
5688;SDS011;2869;50.432;8.680;2023-06-22T05:42:20;29.13;;;20.27;;
5688;SDS011;2869;50.432;8.680;2023-06-22T05:44:48;30.37;;;20.17;;
5688;SDS011;2869;50.432;8.680;2023-06-22T05:47:15;28.50;;;19.67;;
5688;SDS011;2869;50.432;8.680;2023-06-22T05:49:42;23.27;;;19.90;;
5688;SDS011;2869;50.432;8.680;2023-06-22T05:52:09;28.00;;;19.83;;
5688;SDS011;2869;50.432;8.680;2023-06-22T05:54:35;28.70;;;21.60;;
5688;SDS011;2869;50.432;8.680;2023-06-22T05:57:04;24.20;;;19.63;;
5688;SDS011;2869;50.432;8.680;2023-06-22T05:59:31;30.87;;;19.50;;
5688;SDS011;2869;50.432;8.680;2023-06-22T06:01:58;27.93;;;20.80;;
5688;SDS011;2869;50.432;8.680;2023-06-22T06:04:25;26.33;;;20.17;;
5688;SDS011;2869;50.432;8.680;2023-06-22T06:06:52;29.97;;;18.73;;
5688;SDS011;2869;50.432;8.680;2023-06-22T06:09:18;26.50;;;19.40;;
5688;SDS011;2869;50.432;8.680;2023-06-22T06:11:45;25.40;;;19.20;;
5688;SDS011;2869;50.432;8.680;2023-06-22T06:14:12;34.73;;;20.50;;
5688;SDS011;2869;50.432;8.680;2023-06-22T06:16:38;30.13;;;19.40;;
5688;SDS011;2869;50.432;8.680;2023-06-22T06:19:07;30.07;;;18.80;;
5688;SDS011;2869;50.432;8.680;2023-06-22T06:21:34;32.20;;;18.20;;
5688;SDS011;2869;50.432;8.680;2023-06-22T06:24:01;32.30;;;18.00;;
5688;SDS011;2869;50.432;8.680;2023-06-22T06:26:27;33.30;;;18.20;;
5688;SDS011;2869;50.432;8.680;2023-06-22T06:28:55;32.90;;;18.40;;
5688;SDS011;2869;50.432;8.680;2023-06-22T06:31:22;23.43;;;19.23;;
5688;SDS011;2869;50.432;8.680;2023-06-22T06:33:48;27.60;;;17.60;;
5688;SDS011;2869;50.432;8.680;2023-06-22T06:36:16;23.17;;;17.27;;
5688;SDS011;2869;50.432;8.680;2023-06-22T06:38:43;25.67;;;16.17;;
5688;SDS011;2869;50.432;8.680;2023-06-22T06:41:11;21.10;;;16.17;;
5688;SDS011;2869;50.432;8.680;2023-06-22T06:43:38;25.60;;;16.97;;
5688;SDS011;2869;50.432;8.680;2023-06-22T06:46:05;23.87;;;16.47;;
5688;SDS011;2869;50.432;8.680;2023-06-22T06:48:31;24.53;;;17.33;;
5688;SDS011;2869;50.432;8.680;2023-06-22T06:50:58;23.17;;;15.87;;
5688;SDS011;2869;50.432;8.680;2023-06-22T06:53:26;21.87;;;16.33;;
5688;SDS011;2869;50.432;8.680;2023-06-22T06:55:53;21.93;;;16.37;;
5688;SDS011;2869;50.432;8.680;2023-06-22T06:58:20;20.60;;;13.73;;
5688;SDS011;2869;50.432;8.680;2023-06-22T07:00:47;21.90;;;15.63;;
5688;SDS011;2869;50.432;8.680;2023-06-22T07:03:14;16.90;;;14.37;;
5688;SDS011;2869;50.432;8.680;2023-06-22T07:05:41;19.30;;;14.77;;
5688;SDS011;2869;50.432;8.680;2023-06-22T07:08:07;17.83;;;15.43;;
5688;SDS011;2869;50.432;8.680;2023-06-22T07:10:35;25.70;;;15.70;;
5688;SDS011;2869;50.432;8.680;2023-06-22T07:13:02;24.47;;;14.90;;
5688;SDS011;2869;50.432;8.680;2023-06-22T07:15:28;22.83;;;14.37;;
5688;SDS011;2869;50.432;8.680;2023-06-22T07:17:55;21.10;;;13.40;;
5688;SDS011;2869;50.432;8.680;2023-06-22T07:20:22;16.60;;;14.13;;
5688;SDS011;2869;50.432;8.680;2023-06-22T07:22:48;18.97;;;14.67;;
5688;SDS011;2869;50.432;8.680;2023-06-22T07:25:15;18.13;;;13.93;;
5688;SDS011;2869;50.432;8.680;2023-06-22T07:27:45;17.73;;;15.03;;
5688;SDS011;2869;50.432;8.680;2023-06-22T07:30:22;23.93;;;14.47;;
5688;SDS011;2869;50.432;8.680;2023-06-22T07:32:49;18.47;;;13.30;;
5688;SDS011;2869;50.432;8.680;2023-06-22T07:35:15;17.30;;;14.07;;
5688;SDS011;2869;50.432;8.680;2023-06-22T07:37:42;16.10;;;13.90;;
5688;SDS011;2869;50.432;8.680;2023-06-22T07:40:09;17.50;;;14.40;;
5688;SDS011;2869;50.432;8.680;2023-06-22T07:42:36;19.50;;;14.37;;
5688;SDS011;2869;50.432;8.680;2023-06-22T07:45:05;16.90;;;13.37;;
5688;SDS011;2869;50.432;8.680;2023-06-22T07:47:33;16.13;;;12.70;;
5688;SDS011;2869;50.432;8.680;2023-06-22T07:50:00;18.00;;;12.37;;
5688;SDS011;2869;50.432;8.680;2023-06-22T07:52:28;14.97;;;12.37;;
5688;SDS011;2869;50.432;8.680;2023-06-22T07:54:55;17.20;;;12.30;;
5688;SDS011;2869;50.432;8.680;2023-06-22T07:57:22;15.83;;;11.63;;
5688;SDS011;2869;50.432;8.680;2023-06-22T07:59:56;17.90;;;12.03;;
5688;SDS011;2869;50.432;8.680;2023-06-22T08:02:25;17.70;;;12.13;;
5688;SDS011;2869;50.432;8.680;2023-06-22T08:04:51;13.40;;;11.93;;
5688;SDS011;2869;50.432;8.680;2023-06-22T08:07:18;19.10;;;12.97;;
5688;SDS011;2869;50.432;8.680;2023-06-22T08:09:45;15.50;;;12.30;;
5688;SDS011;2869;50.432;8.680;2023-06-22T08:12:14;14.87;;;12.33;;
5688;SDS011;2869;50.432;8.680;2023-06-22T08:14:41;13.43;;;11.30;;
5688;SDS011;2869;50.432;8.680;2023-06-22T08:17:08;14.00;;;11.47;;
5688;SDS011;2869;50.432;8.680;2023-06-22T08:19:36;12.30;;;11.10;;
5688;SDS011;2869;50.432;8.680;2023-06-22T08:22:03;14.37;;;12.53;;
5688;SDS011;2869;50.432;8.680;2023-06-22T08:24:30;14.03;;;10.70;;
5688;SDS011;2869;50.432;8.680;2023-06-22T08:26:57;16.20;;;11.97;;
5688;SDS011;2869;50.432;8.680;2023-06-22T08:29:23;14.00;;;10.37;;
5688;SDS011;2869;50.432;8.680;2023-06-22T08:31:50;13.00;;;10.13;;
5688;SDS011;2869;50.432;8.680;2023-06-22T08:34:16;11.53;;;9.87;;
5688;SDS011;2869;50.432;8.680;2023-06-22T08:36:47;13.40;;;10.60;;
5688;SDS011;2869;50.432;8.680;2023-06-22T08:39:16;11.50;;;9.67;;
5688;SDS011;2869;50.432;8.680;2023-06-22T08:41:43;12.67;;;10.07;;
5688;SDS011;2869;50.432;8.680;2023-06-22T08:44:10;10.27;;;8.93;;
5688;SDS011;2869;50.432;8.680;2023-06-22T08:46:36;11.53;;;8.90;;
5688;SDS011;2869;50.432;8.680;2023-06-22T08:49:05;14.47;;;9.90;;
5688;SDS011;2869;50.432;8.680;2023-06-22T08:51:32;17.10;;;10.13;;
5688;SDS011;2869;50.432;8.680;2023-06-22T08:54:00;13.90;;;9.03;;
5688;SDS011;2869;50.432;8.680;2023-06-22T08:56:27;12.77;;;9.47;;
5688;SDS011;2869;50.432;8.680;2023-06-22T08:58:53;10.33;;;9.23;;
5688;SDS011;2869;50.432;8.680;2023-06-22T09:01:21;10.87;;;9.33;;
5688;SDS011;2869;50.432;8.680;2023-06-22T09:03:48;14.93;;;10.10;;
5688;SDS011;2869;50.432;8.680;2023-06-22T09:06:20;11.10;;;9.77;;
5688;SDS011;2869;50.432;8.680;2023-06-22T09:08:47;12.00;;;8.83;;
5688;SDS011;2869;50.432;8.680;2023-06-22T09:11:15;10.23;;;9.10;;
5688;SDS011;2869;50.432;8.680;2023-06-22T09:13:42;10.73;;;8.97;;
5688;SDS011;2869;50.432;8.680;2023-06-22T09:16:09;13.90;;;9.00;;
5688;SDS011;2869;50.432;8.680;2023-06-22T09:18:36;11.47;;;9.73;;
5688;SDS011;2869;50.432;8.680;2023-06-22T09:21:03;10.93;;;9.43;;
5688;SDS011;2869;50.432;8.680;2023-06-22T09:23:30;10.93;;;9.43;;
5688;SDS011;2869;50.432;8.680;2023-06-22T09:25:56;12.20;;;9.73;;
5688;SDS011;2869;50.432;8.680;2023-06-22T09:28:24;12.33;;;10.53;;
5688;SDS011;2869;50.432;8.680;2023-06-22T09:30:51;12.80;;;9.67;;
5688;SDS011;2869;50.432;8.680;2023-06-22T09:33:24;10.33;;;9.33;;
5688;SDS011;2869;50.432;8.680;2023-06-22T09:35:50;10.57;;;9.47;;
5688;SDS011;2869;50.432;8.680;2023-06-22T09:38:17;10.70;;;9.50;;
5688;SDS011;2869;50.432;8.680;2023-06-22T09:40:44;13.70;;;10.00;;
5688;SDS011;2869;50.432;8.680;2023-06-22T09:43:10;13.60;;;8.63;;
5688;SDS011;2869;50.432;8.680;2023-06-22T09:45:39;9.63;;;8.73;;
5688;SDS011;2869;50.432;8.680;2023-06-22T09:48:05;12.10;;;10.00;;
5688;SDS011;2869;50.432;8.680;2023-06-22T09:50:32;13.00;;;9.73;;
5688;SDS011;2869;50.432;8.680;2023-06-22T09:52:58;13.93;;;9.30;;
5688;SDS011;2869;50.432;8.680;2023-06-22T09:55:25;10.60;;;9.50;;
5688;SDS011;2869;50.432;8.680;2023-06-22T09:57:52;13.63;;;9.73;;
5688;SDS011;2869;50.432;8.680;2023-06-22T10:00:19;14.37;;;10.83;;
5688;SDS011;2869;50.432;8.680;2023-06-22T10:02:48;13.13;;;10.60;;
5688;SDS011;2869;50.432;8.680;2023-06-22T10:05:15;13.00;;;10.90;;
5688;SDS011;2869;50.432;8.680;2023-06-22T10:07:42;11.03;;;10.03;;
5688;SDS011;2869;50.432;8.680;2023-06-22T10:10:09;13.63;;;9.97;;
5688;SDS011;2869;50.432;8.680;2023-06-22T10:12:35;11.00;;;9.20;;
5688;SDS011;2869;50.432;8.680;2023-06-22T10:15:02;11.00;;;9.70;;
5688;SDS011;2869;50.432;8.680;2023-06-22T10:17:30;11.90;;;9.57;;
5688;SDS011;2869;50.432;8.680;2023-06-22T10:19:58;15.00;;;9.80;;
5688;SDS011;2869;50.432;8.680;2023-06-22T10:22:25;12.13;;;8.90;;
5688;SDS011;2869;50.432;8.680;2023-06-22T10:24:52;9.23;;;8.30;;
5688;SDS011;2869;50.432;8.680;2023-06-22T10:27:19;10.00;;;9.00;;
5688;SDS011;2869;50.432;8.680;2023-06-22T10:29:45;10.77;;;9.67;;
5688;SDS011;2869;50.432;8.680;2023-06-22T10:32:12;10.63;;;8.40;;
5688;SDS011;2869;50.432;8.680;2023-06-22T10:34:38;9.20;;;8.33;;
5688;SDS011;2869;50.432;8.680;2023-06-22T10:37:07;13.07;;;8.20;;
5688;SDS011;2869;50.432;8.680;2023-06-22T10:39:33;13.77;;;8.23;;
5688;SDS011;2869;50.432;8.680;2023-06-22T10:42:00;12.63;;;8.07;;
5688;SDS011;2869;50.432;8.680;2023-06-22T10:44:26;9.43;;;8.43;;
5688;SDS011;2869;50.432;8.680;2023-06-22T10:46:53;11.43;;;9.40;;
5688;SDS011;2869;50.432;8.680;2023-06-22T10:49:20;11.30;;;8.87;;
5688;SDS011;2869;50.432;8.680;2023-06-22T10:51:46;14.13;;;8.40;;
5688;SDS011;2869;50.432;8.680;2023-06-22T10:54:14;10.93;;;9.07;;
5688;SDS011;2869;50.432;8.680;2023-06-22T10:56:43;9.90;;;8.70;;
5688;SDS011;2869;50.432;8.680;2023-06-22T10:59:09;11.70;;;8.90;;
5688;SDS011;2869;50.432;8.680;2023-06-22T11:01:36;15.00;;;9.17;;
5688;SDS011;2869;50.432;8.680;2023-06-22T11:04:03;12.27;;;8.53;;
5688;SDS011;2869;50.432;8.680;2023-06-22T11:06:30;8.97;;;8.10;;
5688;SDS011;2869;50.432;8.680;2023-06-22T11:08:56;9.33;;;8.43;;
5688;SDS011;2869;50.432;8.680;2023-06-22T11:11:25;10.20;;;8.40;;
5688;SDS011;2869;50.432;8.680;2023-06-22T11:13:52;14.40;;;8.20;;
5688;SDS011;2869;50.432;8.680;2023-06-22T11:16:18;9.87;;;8.17;;
5688;SDS011;2869;50.432;8.680;2023-06-22T11:18:45;10.60;;;7.60;;
5688;SDS011;2869;50.432;8.680;2023-06-22T11:21:12;9.50;;;8.30;;
5688;SDS011;2869;50.432;8.680;2023-06-22T11:23:38;9.70;;;8.43;;
5688;SDS011;2869;50.432;8.680;2023-06-22T11:26:05;8.77;;;7.57;;
5688;SDS011;2869;50.432;8.680;2023-06-22T11:28:33;11.70;;;8.37;;
5688;SDS011;2869;50.432;8.680;2023-06-22T11:30:59;9.70;;;7.73;;
5688;SDS011;2869;50.432;8.680;2023-06-22T11:33:26;11.37;;;8.07;;
5688;SDS011;2869;50.432;8.680;2023-06-22T11:35:53;9.67;;;8.10;;
5688;SDS011;2869;50.432;8.680;2023-06-22T11:38:21;8.87;;;8.07;;
5688;SDS011;2869;50.432;8.680;2023-06-22T11:40:48;8.90;;;8.00;;
5688;SDS011;2869;50.432;8.680;2023-06-22T11:43:14;10.33;;;7.57;;
5688;SDS011;2869;50.432;8.680;2023-06-22T11:45:42;8.70;;;6.97;;
5688;SDS011;2869;50.432;8.680;2023-06-22T11:48:09;7.57;;;6.87;;
5688;SDS011;2869;50.432;8.680;2023-06-22T11:50:35;13.30;;;7.60;;
5688;SDS011;2869;50.432;8.680;2023-06-22T11:53:02;7.00;;;6.30;;
5688;SDS011;2869;50.432;8.680;2023-06-22T11:55:29;8.20;;;7.20;;
5688;SDS011;2869;50.432;8.680;2023-06-22T11:57:56;7.83;;;7.00;;
5688;SDS011;2869;50.432;8.680;2023-06-22T12:00:26;11.37;;;7.13;;
5688;SDS011;2869;50.432;8.680;2023-06-22T12:02:54;9.83;;;8.00;;
5688;SDS011;2869;50.432;8.680;2023-06-22T12:05:21;10.63;;;7.17;;
5688;SDS011;2869;50.432;8.680;2023-06-22T12:07:49;9.23;;;7.20;;
5688;SDS011;2869;50.432;8.680;2023-06-22T12:10:15;9.50;;;7.60;;
5688;SDS011;2869;50.432;8.680;2023-06-22T12:12:42;8.50;;;7.17;;
5688;SDS011;2869;50.432;8.680;2023-06-22T12:15:09;8.13;;;7.33;;
5688;SDS011;2869;50.432;8.680;2023-06-22T12:17:36;12.23;;;7.10;;
5688;SDS011;2869;50.432;8.680;2023-06-22T12:20:05;18.37;;;7.90;;
5688;SDS011;2869;50.432;8.680;2023-06-22T12:22:32;15.37;;;7.57;;
5688;SDS011;2869;50.432;8.680;2023-06-22T12:24:59;13.40;;;7.47;;
5688;SDS011;2869;50.432;8.680;2023-06-22T12:27:26;10.70;;;8.00;;
5688;SDS011;2869;50.432;8.680;2023-06-22T12:29:54;10.33;;;7.47;;
5688;SDS011;2869;50.432;8.680;2023-06-22T12:32:21;11.27;;;7.53;;
5688;SDS011;2869;50.432;8.680;2023-06-22T12:34:48;12.50;;;7.87;;
5688;SDS011;2869;50.432;8.680;2023-06-22T12:37:16;12.43;;;8.10;;
5688;SDS011;2869;50.432;8.680;2023-06-22T12:39:42;9.90;;;7.00;;
5688;SDS011;2869;50.432;8.680;2023-06-22T12:42:09;9.83;;;8.53;;
5688;SDS011;2869;50.432;8.680;2023-06-22T12:44:37;13.07;;;8.70;;
5688;SDS011;2869;50.432;8.680;2023-06-22T12:47:05;10.63;;;8.10;;
5688;SDS011;2869;50.432;8.680;2023-06-22T12:49:31;13.60;;;7.87;;
5688;SDS011;2869;50.432;8.680;2023-06-22T12:51:58;20.20;;;8.57;;
5688;SDS011;2869;50.432;8.680;2023-06-22T12:54:26;11.73;;;8.33;;
5688;SDS011;2869;50.432;8.680;2023-06-22T12:56:54;14.30;;;8.10;;
5688;SDS011;2869;50.432;8.680;2023-06-22T12:59:21;16.13;;;8.00;;
5688;SDS011;2869;50.432;8.680;2023-06-22T13:01:48;12.30;;;8.83;;
5688;SDS011;2869;50.432;8.680;2023-06-22T13:04:14;12.60;;;8.70;;
5688;SDS011;2869;50.432;8.680;2023-06-22T13:06:41;9.30;;;8.17;;
5688;SDS011;2869;50.432;8.680;2023-06-22T13:09:09;9.50;;;7.60;;
5688;SDS011;2869;50.432;8.680;2023-06-22T13:11:37;17.70;;;8.30;;
5688;SDS011;2869;50.432;8.680;2023-06-22T13:14:04;12.70;;;8.77;;
5688;SDS011;2869;50.432;8.680;2023-06-22T13:16:31;9.33;;;8.23;;
5688;SDS011;2869;50.432;8.680;2023-06-22T13:18:57;12.57;;;8.60;;
5688;SDS011;2869;50.432;8.680;2023-06-22T13:21:24;13.20;;;8.73;;
5688;SDS011;2869;50.432;8.680;2023-06-22T13:23:51;9.10;;;8.20;;
5688;SDS011;2869;50.432;8.680;2023-06-22T13:26:17;12.13;;;8.80;;
5688;SDS011;2869;50.432;8.680;2023-06-22T13:28:45;17.50;;;9.07;;
5688;SDS011;2869;50.432;8.680;2023-06-22T13:31:12;16.50;;;9.43;;
5688;SDS011;2869;50.432;8.680;2023-06-22T13:33:38;17.93;;;9.10;;
5688;SDS011;2869;50.432;8.680;2023-06-22T13:36:05;12.50;;;8.63;;
5688;SDS011;2869;50.432;8.680;2023-06-22T13:38:32;13.80;;;8.80;;
5688;SDS011;2869;50.432;8.680;2023-06-22T13:41:00;14.20;;;8.70;;
5688;SDS011;2869;50.432;8.680;2023-06-22T13:43:26;11.87;;;8.87;;
5688;SDS011;2869;50.432;8.680;2023-06-22T13:45:54;15.17;;;9.50;;
5688;SDS011;2869;50.432;8.680;2023-06-22T13:48:21;15.90;;;9.27;;
5688;SDS011;2869;50.432;8.680;2023-06-22T13:50:48;13.57;;;8.40;;
5688;SDS011;2869;50.432;8.680;2023-06-22T13:53:15;14.27;;;9.83;;
5688;SDS011;2869;50.432;8.680;2023-06-22T13:55:42;20.47;;;10.23;;
5688;SDS011;2869;50.432;8.680;2023-06-22T13:58:08;14.33;;;9.30;;
5688;SDS011;2869;50.432;8.680;2023-06-22T14:00:35;16.90;;;10.80;;
5688;SDS011;2869;50.432;8.680;2023-06-22T14:03:03;13.73;;;9.50;;
5688;SDS011;2869;50.432;8.680;2023-06-22T14:05:29;15.63;;;10.43;;
5688;SDS011;2869;50.432;8.680;2023-06-22T14:07:56;14.00;;;9.53;;
5688;SDS011;2869;50.432;8.680;2023-06-22T14:10:23;16.50;;;9.47;;
5688;SDS011;2869;50.432;8.680;2023-06-22T14:12:49;16.63;;;9.60;;
5688;SDS011;2869;50.432;8.680;2023-06-22T14:15:17;17.40;;;8.80;;
5688;SDS011;2869;50.432;8.680;2023-06-22T14:17:44;18.90;;;9.10;;
5688;SDS011;2869;50.432;8.680;2023-06-22T14:20:12;13.77;;;8.63;;
5688;SDS011;2869;50.432;8.680;2023-06-22T14:22:39;14.20;;;8.67;;
5688;SDS011;2869;50.432;8.680;2023-06-22T14:25:06;15.00;;;9.90;;
5688;SDS011;2869;50.432;8.680;2023-06-22T14:27:33;18.43;;;9.77;;
5688;SDS011;2869;50.432;8.680;2023-06-22T14:29:59;26.53;;;9.50;;
5688;SDS011;2869;50.432;8.680;2023-06-22T14:32:27;18.50;;;9.57;;
5688;SDS011;2869;50.432;8.680;2023-06-22T14:34:54;12.87;;;8.70;;
5688;SDS011;2869;50.432;8.680;2023-06-22T14:37:22;15.47;;;9.77;;
5688;SDS011;2869;50.432;8.680;2023-06-22T14:39:49;13.90;;;8.90;;
5688;SDS011;2869;50.432;8.680;2023-06-22T14:42:15;16.63;;;8.90;;
5688;SDS011;2869;50.432;8.680;2023-06-22T14:44:42;16.27;;;9.80;;
5688;SDS011;2869;50.432;8.680;2023-06-22T14:47:09;12.07;;;9.97;;
5688;SDS011;2869;50.432;8.680;2023-06-22T14:49:36;12.77;;;9.87;;
5688;SDS011;2869;50.432;8.680;2023-06-22T14:52:03;18.80;;;9.43;;
5688;SDS011;2869;50.432;8.680;2023-06-22T14:54:32;13.70;;;9.60;;
5688;SDS011;2869;50.432;8.680;2023-06-22T14:56:59;19.20;;;10.57;;